< Cyclone 200909 2009 Season Cyclone 200916 >
Cyclone 200910 (Freddy)
General InformationTrack Information on Google MapsDetailed Wind InformationList of All Images || ResourceGoogle EarthGE AnimationAtom FeedGeoJSON
Detalied Best Track (Time Zone = UTC)
Year Month Day Hour Lat. Long. Pressure (hPa) Wind (kt) Class Image Chart
2009 2 3 06 -15.4 125.5 998 0 0 Image --
2009 2 3 12 -15.4 122.5 998 0 0 Image --
2009 2 3 18 -15.2 121.6 998 0 0 Image --
2009 2 4 00 -15.1 120.6 998 0 0 Image --
2009 2 4 06 -14.9 120.3 998 0 0 Image --
2009 2 4 12 -14.9 119.0 998 0 0 Image --
2009 2 4 18 -15.5 118.8 998 0 0 Image --
2009 2 5 00 -15.9 118.4 998 0 0 Image --
2009 2 5 06 -16.1 117.8 998 20 2 Image --
2009 2 5 12 -16.1 116.7 998 20 2 Image --
2009 2 5 18 -16.2 115.2 997 25 2 Image --
2009 2 6 00 -16.1 114.3 996 25 2 Image --
2009 2 6 06 -15.9 114.1 994 25 2 Image --
2009 2 6 12 -15.9 113.8 994 25 2 Image --
2009 2 6 18 -15.9 113.5 992 30 2 Image --
2009 2 7 00 -15.9 113.3 994 30 2 Image --
2009 2 7 06 -16.3 112.8 995 30 2 Image --
2009 2 7 12 -16.2 111.8 995 30 2 Image --
2009 2 7 18 -16.0 111.1 993 35 3 Image --
2009 2 8 00 -16.0 110.3 992 45 3 Image --
2009 2 8 06 -16.3 109.5 992 45 3 Image --
2009 2 8 12 -16.5 108.6 992 45 3 Image --
2009 2 8 18 -16.9 107.7 992 45 3 Image --
2009 2 9 00 -17.6 106.9 992 45 3 Image --
2009 2 9 06 -18.2 105.7 993 40 3 Image --
2009 2 9 12 -18.8 104.5 996 35 3 Image --
2009 2 9 18 -19.2 103.3 999 30 2 Image --
2009 2 10 00 -19.7 102.2 998 30 2 Image --
2009 2 10 06 -20.5 100.5 999 30 2 Image --
2009 2 10 12 -20.8 100.0 999 25 2 Image --
2009 2 10 18 -21.1 99.0 1001 25 2 Image --
2009 2 11 00 -21.4 98.0 1000 25 2 Image --
2009 2 11 06 -21.6 97.4 999 25 2 Image --
2009 2 11 12 -21.4 96.9 999 25 2 Image --
2009 2 11 18 -21.0 96.3 1000 25 2 Image --
2009 2 12 00 -20.7 95.8 1003 20 2 Image --
2009 2 12 06 -20.3 94.6 1004 20 2 Image --
2009 2 12 12 -19.9 93.1 1005 20 2 Image --
2009 2 12 18 -19.6 91.7 1005 20 2 Image --
2009 2 13 00 -19.2 90.2 1005 20 2 Image --
2009 2 13 06 -18.9 88.9 1005 20 2 Image --
< Cyclone 200909 2009 Season Cyclone 200916 >

Help